sensor_id;sensor_type;location;lat;lon;timestamp;P1;durP1;ratioP1;P2;durP2;ratioP2
75520;SDS011;64102;48.628;9.002;2022-10-22T00:01:31;0.13;;;0.00;;
75520;SDS011;64102;48.628;9.002;2022-10-22T00:03:57;2.25;;;0.00;;
75520;SDS011;64102;48.628;9.002;2022-10-22T00:06:22;1.23;;;0.00;;
75520;SDS011;64102;48.628;9.002;2022-10-22T00:08:48;0.45;;;0.00;;
75520;SDS011;64102;48.628;9.002;2022-10-22T00:11:14;0.30;;;0.00;;
75520;SDS011;64102;48.628;9.002;2022-10-22T00:13:41;2.17;;;0.08;;
75520;SDS011;64102;48.628;9.002;2022-10-22T00:16:07;6.50;;;0.25;;
75520;SDS011;64102;48.628;9.002;2022-10-22T00:18:33;1.02;;;0.00;;
75520;SDS011;64102;48.628;9.002;2022-10-22T00:20:58;0.55;;;0.00;;
75520;SDS011;64102;48.628;9.002;2022-10-22T00:23:24;0.53;;;0.00;;
75520;SDS011;64102;48.628;9.002;2022-10-22T00:25:49;1.55;;;0.00;;
75520;SDS011;64102;48.628;9.002;2022-10-22T00:28:14;1.30;;;0.00;;
75520;SDS011;64102;48.628;9.002;2022-10-22T00:30:40;0.70;;;0.00;;
75520;SDS011;64102;48.628;9.002;2022-10-22T00:33:05;0.40;;;0.00;;
75520;SDS011;64102;48.628;9.002;2022-10-22T00:35:31;0.20;;;0.00;;
75520;SDS011;64102;48.628;9.002;2022-10-22T00:37:57;0.60;;;0.00;;
75520;SDS011;64102;48.628;9.002;2022-10-22T00:40:22;0.23;;;0.00;;
75520;SDS011;64102;48.628;9.002;2022-10-22T00:42:47;0.55;;;0.00;;
75520;SDS011;64102;48.628;9.002;2022-10-22T00:45:15;0.63;;;0.00;;
75520;SDS011;64102;48.628;9.002;2022-10-22T00:47:47;0.55;;;0.00;;
75520;SDS011;64102;48.628;9.002;2022-10-22T00:50:20;0.30;;;0.00;;
75520;SDS011;64102;48.628;9.002;2022-10-22T00:53:08;0.10;;;0.00;;
75520;SDS011;64102;48.628;9.002;2022-10-22T00:55:37;3.40;;;0.28;;
75520;SDS011;64102;48.628;9.002;2022-10-22T00:58:04;1.00;;;0.20;;
75520;SDS011;64102;48.628;9.002;2022-10-22T01:00:29;0.25;;;0.00;;
75520;SDS011;64102;48.628;9.002;2022-10-22T01:02:55;2.45;;;0.00;;
75520;SDS011;64102;48.628;9.002;2022-10-22T01:05:21;2.45;;;0.00;;
75520;SDS011;64102;48.628;9.002;2022-10-22T01:07:51;1.70;;;0.10;;
75520;SDS011;64102;48.628;9.002;2022-10-22T01:16:13;0.50;;;0.00;;
75520;SDS011;64102;48.628;9.002;2022-10-22T01:19:10;0.25;;;0.00;;
75520;SDS011;64102;48.628;9.002;2022-10-22T01:24:53;0.57;;;0.00;;
75520;SDS011;64102;48.628;9.002;2022-10-22T01:27:30;1.17;;;0.00;;
75520;SDS011;64102;48.628;9.002;2022-10-22T01:30:12;0.25;;;0.00;;
75520;SDS011;64102;48.628;9.002;2022-10-22T01:35:12;0.10;;;0.00;;
75520;SDS011;64102;48.628;9.002;2022-10-22T01:37:51;0.17;;;0.00;;
75520;SDS011;64102;48.628;9.002;2022-10-22T01:40:19;0.55;;;0.00;;
75520;SDS011;64102;48.628;9.002;2022-10-22T01:42:54;0.47;;;0.00;;
75520;SDS011;64102;48.628;9.002;2022-10-22T01:45:23;0.35;;;0.00;;
75520;SDS011;64102;48.628;9.002;2022-10-22T01:56:21;0.70;;;0.00;;
75520;SDS011;64102;48.628;9.002;2022-10-22T02:01:54;0.08;;;0.00;;
75520;SDS011;64102;48.628;9.002;2022-10-22T02:04:45;0.70;;;0.00;;
75520;SDS011;64102;48.628;9.002;2022-10-22T02:07:16;0.57;;;0.00;;
75520;SDS011;64102;48.628;9.002;2022-10-22T02:09:44;0.63;;;0.00;;
75520;SDS011;64102;48.628;9.002;2022-10-22T02:12:10;1.20;;;0.00;;
75520;SDS011;64102;48.628;9.002;2022-10-22T02:14:38;0.32;;;0.00;;
75520;SDS011;64102;48.628;9.002;2022-10-22T02:17:08;0.38;;;0.00;;
75520;SDS011;64102;48.628;9.002;2022-10-22T02:19:38;0.55;;;0.00;;
75520;SDS011;64102;48.628;9.002;2022-10-22T02:22:08;0.90;;;0.00;;
75520;SDS011;64102;48.628;9.002;2022-10-22T02:24:34;0.50;;;0.00;;
75520;SDS011;64102;48.628;9.002;2022-10-22T02:29:40;0.50;;;0.00;;
75520;SDS011;64102;48.628;9.002;2022-10-22T02:32:11;0.68;;;0.00;;
75520;SDS011;64102;48.628;9.002;2022-10-22T02:34:42;0.08;;;0.00;;
75520;SDS011;64102;48.628;9.002;2022-10-22T02:37:11;0.30;;;0.00;;
75520;SDS011;64102;48.628;9.002;2022-10-22T02:39:37;0.80;;;0.00;;
75520;SDS011;64102;48.628;9.002;2022-10-22T02:42:03;0.45;;;0.00;;
75520;SDS011;64102;48.628;9.002;2022-10-22T02:44:29;0.17;;;0.00;;
75520;SDS011;64102;48.628;9.002;2022-10-22T02:46:55;1.20;;;0.00;;
75520;SDS011;64102;48.628;9.002;2022-10-22T02:49:20;0.45;;;0.00;;
75520;SDS011;64102;48.628;9.002;2022-10-22T02:51:46;0.80;;;0.00;;
75520;SDS011;64102;48.628;9.002;2022-10-22T02:54:11;1.00;;;0.00;;
75520;SDS011;64102;48.628;9.002;2022-10-22T02:56:37;0.17;;;0.00;;
75520;SDS011;64102;48.628;9.002;2022-10-22T02:59:02;1.13;;;0.00;;
75520;SDS011;64102;48.628;9.002;2022-10-22T03:01:27;1.70;;;0.00;;
75520;SDS011;64102;48.628;9.002;2022-10-22T03:03:53;0.15;;;0.00;;
75520;SDS011;64102;48.628;9.002;2022-10-22T03:06:18;1.50;;;0.00;;
75520;SDS011;64102;48.628;9.002;2022-10-22T03:08:44;0.93;;;0.00;;
75520;SDS011;64102;48.628;9.002;2022-10-22T03:11:09;0.40;;;0.00;;
75520;SDS011;64102;48.628;9.002;2022-10-22T03:13:35;0.57;;;0.00;;
75520;SDS011;64102;48.628;9.002;2022-10-22T03:16:00;0.20;;;0.00;;
75520;SDS011;64102;48.628;9.002;2022-10-22T03:18:25;1.23;;;0.00;;
75520;SDS011;64102;48.628;9.002;2022-10-22T03:20:58;0.52;;;0.00;;
75520;SDS011;64102;48.628;9.002;2022-10-22T03:23:44;0.20;;;0.00;;
75520;SDS011;64102;48.628;9.002;2022-10-22T03:26:09;1.27;;;0.00;;
75520;SDS011;64102;48.628;9.002;2022-10-22T03:28:38;0.22;;;0.00;;
75520;SDS011;64102;48.628;9.002;2022-10-22T03:31:05;1.17;;;0.00;;
75520;SDS011;64102;48.628;9.002;2022-10-22T03:33:30;0.75;;;0.00;;
75520;SDS011;64102;48.628;9.002;2022-10-22T03:35:56;1.00;;;0.00;;
75520;SDS011;64102;48.628;9.002;2022-10-22T03:38:21;0.10;;;0.00;;
75520;SDS011;64102;48.628;9.002;2022-10-22T03:40:47;1.08;;;0.00;;
75520;SDS011;64102;48.628;9.002;2022-10-22T03:43:12;0.52;;;0.00;;
75520;SDS011;64102;48.628;9.002;2022-10-22T03:45:38;0.30;;;0.00;;
75520;SDS011;64102;48.628;9.002;2022-10-22T03:48:03;0.37;;;0.00;;
75520;SDS011;64102;48.628;9.002;2022-10-22T03:50:29;1.35;;;0.00;;
75520;SDS011;64102;48.628;9.002;2022-10-22T03:52:54;0.53;;;0.00;;
75520;SDS011;64102;48.628;9.002;2022-10-22T03:55:22;0.52;;;0.00;;
75520;SDS011;64102;48.628;9.002;2022-10-22T03:57:48;0.35;;;0.00;;
75520;SDS011;64102;48.628;9.002;2022-10-22T04:00:13;0.30;;;0.00;;
75520;SDS011;64102;48.628;9.002;2022-10-22T04:02:38;0.63;;;0.00;;
75520;SDS011;64102;48.628;9.002;2022-10-22T04:05:04;0.20;;;0.00;;
75520;SDS011;64102;48.628;9.002;2022-10-22T04:07:30;1.48;;;0.00;;
75520;SDS011;64102;48.628;9.002;2022-10-22T04:09:55;0.27;;;0.00;;
75520;SDS011;64102;48.628;9.002;2022-10-22T04:12:20;0.50;;;0.00;;
75520;SDS011;64102;48.628;9.002;2022-10-22T04:14:46;2.10;;;0.00;;
75520;SDS011;64102;48.628;9.002;2022-10-22T04:17:11;0.50;;;0.00;;
75520;SDS011;64102;48.628;9.002;2022-10-22T04:19:37;1.02;;;0.00;;
75520;SDS011;64102;48.628;9.002;2022-10-22T04:22:02;0.22;;;0.00;;
75520;SDS011;64102;48.628;9.002;2022-10-22T04:24:29;0.60;;;0.00;;
75520;SDS011;64102;48.628;9.002;2022-10-22T04:26:55;0.50;;;0.00;;
75520;SDS011;64102;48.628;9.002;2022-10-22T04:29:21;0.85;;;0.00;;
75520;SDS011;64102;48.628;9.002;2022-10-22T04:31:47;1.90;;;0.00;;
75520;SDS011;64102;48.628;9.002;2022-10-22T04:34:12;1.27;;;0.00;;
75520;SDS011;64102;48.628;9.002;2022-10-22T04:36:38;0.45;;;0.00;;
75520;SDS011;64102;48.628;9.002;2022-10-22T04:39:03;0.10;;;0.00;;
75520;SDS011;64102;48.628;9.002;2022-10-22T04:41:34;0.10;;;0.00;;
75520;SDS011;64102;48.628;9.002;2022-10-22T04:44:01;0.57;;;0.00;;
75520;SDS011;64102;48.628;9.002;2022-10-22T04:46:29;0.50;;;0.00;;
75520;SDS011;64102;48.628;9.002;2022-10-22T04:48:56;0.40;;;0.00;;
75520;SDS011;64102;48.628;9.002;2022-10-22T04:51:22;0.63;;;0.00;;
75520;SDS011;64102;48.628;9.002;2022-10-22T04:53:49;0.25;;;0.00;;
75520;SDS011;64102;48.628;9.002;2022-10-22T04:56:16;1.00;;;0.00;;
75520;SDS011;64102;48.628;9.002;2022-10-22T04:58:51;0.65;;;0.00;;
75520;SDS011;64102;48.628;9.002;2022-10-22T05:01:31;0.57;;;0.00;;
75520;SDS011;64102;48.628;9.002;2022-10-22T05:04:00;1.05;;;0.00;;
75520;SDS011;64102;48.628;9.002;2022-10-22T05:06:27;1.15;;;0.10;;
75520;SDS011;64102;48.628;9.002;2022-10-22T05:08:55;0.55;;;0.00;;
75520;SDS011;64102;48.628;9.002;2022-10-22T05:11:28;0.52;;;0.00;;
75520;SDS011;64102;48.628;9.002;2022-10-22T05:13:55;0.98;;;0.00;;
75520;SDS011;64102;48.628;9.002;2022-10-22T05:16:22;0.20;;;0.00;;
75520;SDS011;64102;48.628;9.002;2022-10-22T05:18:48;0.05;;;0.00;;
75520;SDS011;64102;48.628;9.002;2022-10-22T05:21:14;0.07;;;0.00;;
75520;SDS011;64102;48.628;9.002;2022-10-22T05:23:42;2.83;;;0.00;;
75520;SDS011;64102;48.628;9.002;2022-10-22T05:26:09;2.47;;;0.00;;
75520;SDS011;64102;48.628;9.002;2022-10-22T05:28:36;0.08;;;0.00;;
75520;SDS011;64102;48.628;9.002;2022-10-22T05:31:02;0.03;;;0.00;;
75520;SDS011;64102;48.628;9.002;2022-10-22T05:33:29;0.93;;;0.00;;
75520;SDS011;64102;48.628;9.002;2022-10-22T05:35:56;1.05;;;0.00;;
75520;SDS011;64102;48.628;9.002;2022-10-22T05:38:22;0.75;;;0.00;;
75520;SDS011;64102;48.628;9.002;2022-10-22T05:40:47;0.32;;;0.00;;
75520;SDS011;64102;48.628;9.002;2022-10-22T05:43:12;0.38;;;0.00;;
75520;SDS011;64102;48.628;9.002;2022-10-22T05:45:41;1.17;;;0.00;;
75520;SDS011;64102;48.628;9.002;2022-10-22T05:48:07;0.63;;;0.00;;
75520;SDS011;64102;48.628;9.002;2022-10-22T05:50:37;0.55;;;0.00;;
75520;SDS011;64102;48.628;9.002;2022-10-22T05:53:03;0.50;;;0.00;;
75520;SDS011;64102;48.628;9.002;2022-10-22T05:55:29;1.27;;;0.00;;
75520;SDS011;64102;48.628;9.002;2022-10-22T05:58:00;0.60;;;0.00;;
75520;SDS011;64102;48.628;9.002;2022-10-22T06:00:26;0.08;;;0.00;;
75520;SDS011;64102;48.628;9.002;2022-10-22T06:02:52;1.23;;;0.00;;
75520;SDS011;64102;48.628;9.002;2022-10-22T06:05:17;0.53;;;0.00;;
75520;SDS011;64102;48.628;9.002;2022-10-22T06:07:42;1.55;;;0.00;;
75520;SDS011;64102;48.628;9.002;2022-10-22T06:10:09;0.10;;;0.00;;
75520;SDS011;64102;48.628;9.002;2022-10-22T06:12:39;0.88;;;0.00;;
75520;SDS011;64102;48.628;9.002;2022-10-22T06:15:05;0.23;;;0.00;;
75520;SDS011;64102;48.628;9.002;2022-10-22T06:17:31;0.38;;;0.00;;
75520;SDS011;64102;48.628;9.002;2022-10-22T06:19:56;0.88;;;0.00;;
75520;SDS011;64102;48.628;9.002;2022-10-22T06:22:21;2.30;;;0.00;;
75520;SDS011;64102;48.628;9.002;2022-10-22T06:24:47;0.10;;;0.00;;
75520;SDS011;64102;48.628;9.002;2022-10-22T06:27:12;0.30;;;0.00;;
75520;SDS011;64102;48.628;9.002;2022-10-22T06:29:38;0.57;;;0.00;;
75520;SDS011;64102;48.628;9.002;2022-10-22T06:32:03;1.13;;;0.00;;
75520;SDS011;64102;48.628;9.002;2022-10-22T06:34:29;0.45;;;0.00;;
75520;SDS011;64102;48.628;9.002;2022-10-22T06:36:54;0.83;;;0.00;;
75520;SDS011;64102;48.628;9.002;2022-10-22T06:39:19;0.47;;;0.00;;
75520;SDS011;64102;48.628;9.002;2022-10-22T06:41:45;0.07;;;0.00;;
75520;SDS011;64102;48.628;9.002;2022-10-22T06:44:12;1.35;;;0.10;;
75520;SDS011;64102;48.628;9.002;2022-10-22T06:46:39;0.40;;;0.00;;
75520;SDS011;64102;48.628;9.002;2022-10-22T06:49:04;0.63;;;0.00;;
75520;SDS011;64102;48.628;9.002;2022-10-22T06:51:30;0.97;;;0.00;;
75520;SDS011;64102;48.628;9.002;2022-10-22T06:53:56;1.37;;;0.00;;
75520;SDS011;64102;48.628;9.002;2022-10-22T06:56:23;0.10;;;0.00;;
75520;SDS011;64102;48.628;9.002;2022-10-22T06:58:51;0.80;;;0.00;;
75520;SDS011;64102;48.628;9.002;2022-10-22T07:01:18;0.75;;;0.00;;
75520;SDS011;64102;48.628;9.002;2022-10-22T07:03:48;0.40;;;0.00;;
75520;SDS011;64102;48.628;9.002;2022-10-22T07:06:15;0.80;;;0.00;;
75520;SDS011;64102;48.628;9.002;2022-10-22T07:08:41;0.52;;;0.00;;
75520;SDS011;64102;48.628;9.002;2022-10-22T07:11:10;0.60;;;0.00;;
75520;SDS011;64102;48.628;9.002;2022-10-22T07:13:38;0.30;;;0.00;;
75520;SDS011;64102;48.628;9.002;2022-10-22T07:16:04;0.47;;;0.00;;
75520;SDS011;64102;48.628;9.002;2022-10-22T07:18:31;0.57;;;0.00;;
75520;SDS011;64102;48.628;9.002;2022-10-22T07:20:57;0.73;;;0.00;;
75520;SDS011;64102;48.628;9.002;2022-10-22T07:23:22;0.43;;;0.00;;
75520;SDS011;64102;48.628;9.002;2022-10-22T07:25:47;1.05;;;0.00;;
75520;SDS011;64102;48.628;9.002;2022-10-22T07:28:13;2.05;;;0.00;;
75520;SDS011;64102;48.628;9.002;2022-10-22T07:30:38;0.88;;;0.00;;
75520;SDS011;64102;48.628;9.002;2022-10-22T07:33:04;1.40;;;0.00;;
75520;SDS011;64102;48.628;9.002;2022-10-22T07:35:30;0.90;;;0.00;;
75520;SDS011;64102;48.628;9.002;2022-10-22T07:37:56;0.55;;;0.00;;
75520;SDS011;64102;48.628;9.002;2022-10-22T07:40:21;0.23;;;0.00;;
75520;SDS011;64102;48.628;9.002;2022-10-22T07:42:46;1.85;;;0.10;;
75520;SDS011;64102;48.628;9.002;2022-10-22T07:45:12;0.70;;;0.00;;
75520;SDS011;64102;48.628;9.002;2022-10-22T07:47:37;0.85;;;0.00;;
75520;SDS011;64102;48.628;9.002;2022-10-22T07:50:03;0.45;;;0.00;;
75520;SDS011;64102;48.628;9.002;2022-10-22T07:52:29;1.55;;;0.00;;
75520;SDS011;64102;48.628;9.002;2022-10-22T07:54:54;0.35;;;0.00;;
75520;SDS011;64102;48.628;9.002;2022-10-22T07:57:20;0.82;;;0.00;;
75520;SDS011;64102;48.628;9.002;2022-10-22T07:59:45;0.45;;;0.00;;
75520;SDS011;64102;48.628;9.002;2022-10-22T08:02:11;0.13;;;0.00;;
75520;SDS011;64102;48.628;9.002;2022-10-22T08:04:37;0.43;;;0.00;;
75520;SDS011;64102;48.628;9.002;2022-10-22T08:07:03;0.75;;;0.00;;
75520;SDS011;64102;48.628;9.002;2022-10-22T08:09:28;0.55;;;0.00;;
75520;SDS011;64102;48.628;9.002;2022-10-22T08:11:54;0.63;;;0.00;;
75520;SDS011;64102;48.628;9.002;2022-10-22T08:14:19;1.08;;;0.00;;
75520;SDS011;64102;48.628;9.002;2022-10-22T08:16:45;0.45;;;0.00;;
75520;SDS011;64102;48.628;9.002;2022-10-22T08:19:10;0.50;;;0.00;;
75520;SDS011;64102;48.628;9.002;2022-10-22T08:21:35;0.90;;;0.10;;
75520;SDS011;64102;48.628;9.002;2022-10-22T08:24:01;1.90;;;0.10;;
75520;SDS011;64102;48.628;9.002;2022-10-22T08:26:26;1.67;;;0.20;;
75520;SDS011;64102;48.628;9.002;2022-10-22T08:28:51;1.70;;;0.10;;
75520;SDS011;64102;48.628;9.002;2022-10-22T08:31:17;0.50;;;0.10;;
75520;SDS011;64102;48.628;9.002;2022-10-22T08:33:42;1.97;;;0.10;;
75520;SDS011;64102;48.628;9.002;2022-10-22T08:36:08;1.17;;;0.10;;
75520;SDS011;64102;48.628;9.002;2022-10-22T08:38:33;3.28;;;0.20;;
75520;SDS011;64102;48.628;9.002;2022-10-22T08:41:15;2.47;;;0.28;;
75520;SDS011;64102;48.628;9.002;2022-10-22T08:49:01;1.52;;;0.30;;
75520;SDS011;64102;48.628;9.002;2022-10-22T08:51:30;2.25;;;0.43;;
75520;SDS011;64102;48.628;9.002;2022-10-22T08:56:52;1.55;;;0.40;;
75520;SDS011;64102;48.628;9.002;2022-10-22T08:59:40;1.25;;;0.22;;
75520;SDS011;64102;48.628;9.002;2022-10-22T09:05:15;2.40;;;0.13;;
75520;SDS011;64102;48.628;9.002;2022-10-22T09:07:44;1.40;;;0.20;;
75520;SDS011;64102;48.628;9.002;2022-10-22T09:10:14;1.55;;;0.70;;
75520;SDS011;64102;48.628;9.002;2022-10-22T09:12:40;0.88;;;0.22;;
75520;SDS011;64102;48.628;9.002;2022-10-22T09:15:08;1.20;;;0.30;;
75520;SDS011;64102;48.628;9.002;2022-10-22T09:17:40;2.38;;;1.02;;
75520;SDS011;64102;48.628;9.002;2022-10-22T09:20:18;1.08;;;0.45;;
75520;SDS011;64102;48.628;9.002;2022-10-22T09:25:42;2.40;;;0.57;;
75520;SDS011;64102;48.628;9.002;2022-10-22T09:28:09;1.02;;;0.32;;
75520;SDS011;64102;48.628;9.002;2022-10-22T09:30:35;1.35;;;0.30;;
75520;SDS011;64102;48.628;9.002;2022-10-22T09:35:32;1.33;;;0.65;;
75520;SDS011;64102;48.628;9.002;2022-10-22T09:38:01;2.05;;;0.47;;
75520;SDS011;64102;48.628;9.002;2022-10-22T09:40:35;3.25;;;1.98;;
75520;SDS011;64102;48.628;9.002;2022-10-22T09:43:08;2.38;;;0.80;;
75520;SDS011;64102;48.628;9.002;2022-10-22T09:45:36;1.85;;;0.63;;
75520;SDS011;64102;48.628;9.002;2022-10-22T09:48:03;2.10;;;0.63;;
75520;SDS011;64102;48.628;9.002;2022-10-22T09:50:46;2.15;;;0.55;;
75520;SDS011;64102;48.628;9.002;2022-10-22T09:53:16;4.30;;;2.45;;
75520;SDS011;64102;48.628;9.002;2022-10-22T09:55:54;2.63;;;1.65;;
75520;SDS011;64102;48.628;9.002;2022-10-22T09:58:21;3.47;;;2.30;;
75520;SDS011;64102;48.628;9.002;2022-10-22T10:00:51;3.35;;;1.83;;
75520;SDS011;64102;48.628;9.002;2022-10-22T10:03:22;3.10;;;1.48;;
75520;SDS011;64102;48.628;9.002;2022-10-22T10:05:57;3.55;;;1.75;;
75520;SDS011;64102;48.628;9.002;2022-10-22T10:08:24;3.60;;;2.28;;
75520;SDS011;64102;48.628;9.002;2022-10-22T10:10:53;3.25;;;2.17;;
75520;SDS011;64102;48.628;9.002;2022-10-22T10:13:45;1.63;;;0.70;;
75520;SDS011;64102;48.628;9.002;2022-10-22T10:16:27;3.40;;;1.48;;
75520;SDS011;64102;48.628;9.002;2022-10-22T10:27:10;1.88;;;0.93;;
75520;SDS011;64102;48.628;9.002;2022-10-22T10:40:39;3.10;;;2.13;;
75520;SDS011;64102;48.628;9.002;2022-10-22T10:43:12;2.50;;;1.13;;
75520;SDS011;64102;48.628;9.002;2022-10-22T11:04:20;3.47;;;2.28;;
75520;SDS011;64102;48.628;9.002;2022-10-22T11:07:06;3.97;;;3.50;;
75520;SDS011;64102;48.628;9.002;2022-10-22T11:09:40;3.15;;;2.08;;
75520;SDS011;64102;48.628;9.002;2022-10-22T11:12:20;3.67;;;2.53;;
75520;SDS011;64102;48.628;9.002;2022-10-22T11:14:58;4.60;;;2.17;;
75520;SDS011;64102;48.628;9.002;2022-10-22T11:17:34;2.85;;;2.47;;
75520;SDS011;64102;48.628;9.002;2022-10-22T11:20:23;4.10;;;3.35;;
75520;SDS011;64102;48.628;9.002;2022-10-22T11:22:56;4.13;;;3.17;;
75520;SDS011;64102;48.628;9.002;2022-10-22T11:25:28;4.25;;;3.10;;
75520;SDS011;64102;48.628;9.002;2022-10-22T11:30:52;2.00;;;0.30;;
75520;SDS011;64102;48.628;9.002;2022-10-22T11:33:23;1.80;;;0.63;;
75520;SDS011;64102;48.628;9.002;2022-10-22T11:35:52;2.10;;;0.35;;
75520;SDS011;64102;48.628;9.002;2022-10-22T11:38:22;3.10;;;2.15;;
75520;SDS011;64102;48.628;9.002;2022-10-22T11:40:58;4.53;;;2.65;;
75520;SDS011;64102;48.628;9.002;2022-10-22T11:43:27;2.78;;;2.00;;
75520;SDS011;64102;48.628;9.002;2022-10-22T11:48:40;4.72;;;4.30;;
75520;SDS011;64102;48.628;9.002;2022-10-22T11:51:27;4.63;;;3.35;;
75520;SDS011;64102;48.628;9.002;2022-10-22T11:53:57;5.63;;;5.13;;
75520;SDS011;64102;48.628;9.002;2022-10-22T11:56:26;4.50;;;2.63;;
75520;SDS011;64102;48.628;9.002;2022-10-22T11:59:00;3.45;;;2.85;;
75520;SDS011;64102;48.628;9.002;2022-10-22T12:01:26;4.35;;;3.38;;
75520;SDS011;64102;48.628;9.002;2022-10-22T12:06:23;3.53;;;2.38;;
75520;SDS011;64102;48.628;9.002;2022-10-22T12:08:51;6.30;;;5.70;;
75520;SDS011;64102;48.628;9.002;2022-10-22T12:16:55;3.08;;;1.13;;
75520;SDS011;64102;48.628;9.002;2022-10-22T12:21:48;3.67;;;1.23;;
75520;SDS011;64102;48.628;9.002;2022-10-22T12:24:19;3.22;;;1.27;;
75520;SDS011;64102;48.628;9.002;2022-10-22T12:26:46;3.50;;;0.50;;
75520;SDS011;64102;48.628;9.002;2022-10-22T12:29:14;2.20;;;0.15;;
75520;SDS011;64102;48.628;9.002;2022-10-22T12:31:41;2.40;;;0.20;;
75520;SDS011;64102;48.628;9.002;2022-10-22T12:34:12;1.60;;;0.20;;
75520;SDS011;64102;48.628;9.002;2022-10-22T12:36:40;2.00;;;0.57;;
75520;SDS011;64102;48.628;9.002;2022-10-22T12:39:12;2.08;;;0.55;;
75520;SDS011;64102;48.628;9.002;2022-10-22T12:41:40;2.97;;;0.30;;
75520;SDS011;64102;48.628;9.002;2022-10-22T12:44:06;1.20;;;0.10;;
75520;SDS011;64102;48.628;9.002;2022-10-22T12:46:32;1.98;;;0.15;;
75520;SDS011;64102;48.628;9.002;2022-10-22T12:49:01;2.45;;;0.40;;
75520;SDS011;64102;48.628;9.002;2022-10-22T12:51:29;1.05;;;0.40;;
75520;SDS011;64102;48.628;9.002;2022-10-22T12:53:58;2.20;;;0.40;;
75520;SDS011;64102;48.628;9.002;2022-10-22T12:56:31;2.85;;;0.68;;
75520;SDS011;64102;48.628;9.002;2022-10-22T12:58:59;3.67;;;0.95;;
75520;SDS011;64102;48.628;9.002;2022-10-22T13:01:36;1.98;;;1.17;;
75520;SDS011;64102;48.628;9.002;2022-10-22T13:04:05;3.13;;;1.38;;
75520;SDS011;64102;48.628;9.002;2022-10-22T13:06:32;1.52;;;0.10;;
75520;SDS011;64102;48.628;9.002;2022-10-22T13:11:30;4.50;;;1.30;;
75520;SDS011;64102;48.628;9.002;2022-10-22T13:14:01;3.95;;;0.68;;
75520;SDS011;64102;48.628;9.002;2022-10-22T13:16:28;1.67;;;0.10;;
75520;SDS011;64102;48.628;9.002;2022-10-22T13:18:55;1.27;;;0.10;;
75520;SDS011;64102;48.628;9.002;2022-10-22T13:24:19;0.95;;;0.13;;
75520;SDS011;64102;48.628;9.002;2022-10-22T13:26:52;2.63;;;0.32;;
75520;SDS011;64102;48.628;9.002;2022-10-22T13:29:19;0.63;;;0.20;;
75520;SDS011;64102;48.628;9.002;2022-10-22T13:31:47;2.03;;;0.88;;
75520;SDS011;64102;48.628;9.002;2022-10-22T13:34:16;2.30;;;1.30;;
75520;SDS011;64102;48.628;9.002;2022-10-22T13:36:44;3.85;;;1.17;;
75520;SDS011;64102;48.628;9.002;2022-10-22T13:39:27;2.05;;;1.02;;
75520;SDS011;64102;48.628;9.002;2022-10-22T13:41:53;4.03;;;1.83;;
75520;SDS011;64102;48.628;9.002;2022-10-22T13:44:19;1.55;;;0.60;;
75520;SDS011;64102;48.628;9.002;2022-10-22T13:46:45;1.65;;;0.65;;
75520;SDS011;64102;48.628;9.002;2022-10-22T13:49:15;1.40;;;0.22;;
75520;SDS011;64102;48.628;9.002;2022-10-22T13:51:43;1.65;;;0.43;;
75520;SDS011;64102;48.628;9.002;2022-10-22T13:54:12;2.25;;;1.45;;
75520;SDS011;64102;48.628;9.002;2022-10-22T13:56:40;1.83;;;0.50;;
75520;SDS011;64102;48.628;9.002;2022-10-22T13:59:07;2.35;;;0.68;;
75520;SDS011;64102;48.628;9.002;2022-10-22T14:01:33;1.90;;;0.52;;
75520;SDS011;64102;48.628;9.002;2022-10-22T14:03:58;2.13;;;0.68;;
75520;SDS011;64102;48.628;9.002;2022-10-22T14:06:26;1.40;;;0.30;;
75520;SDS011;64102;48.628;9.002;2022-10-22T14:08:59;2.30;;;0.20;;
75520;SDS011;64102;48.628;9.002;2022-10-22T14:11:28;3.05;;;1.05;;
75520;SDS011;64102;48.628;9.002;2022-10-22T14:13:55;2.90;;;0.38;;
75520;SDS011;64102;48.628;9.002;2022-10-22T14:16:25;2.33;;;1.00;;
75520;SDS011;64102;48.628;9.002;2022-10-22T14:18:51;2.42;;;0.47;;
75520;SDS011;64102;48.628;9.002;2022-10-22T14:21:19;3.88;;;0.47;;
75520;SDS011;64102;48.628;9.002;2022-10-22T14:23:46;1.45;;;0.47;;
75520;SDS011;64102;48.628;9.002;2022-10-22T14:26:25;1.73;;;0.73;;
75520;SDS011;64102;48.628;9.002;2022-10-22T14:28:55;1.10;;;0.10;;
75520;SDS011;64102;48.628;9.002;2022-10-22T14:31:21;2.22;;;0.30;;
75520;SDS011;64102;48.628;9.002;2022-10-22T14:33:46;2.65;;;0.38;;
75520;SDS011;64102;48.628;9.002;2022-10-22T14:36:13;2.40;;;0.10;;
75520;SDS011;64102;48.628;9.002;2022-10-22T14:38:43;2.47;;;0.52;;
75520;SDS011;64102;48.628;9.002;2022-10-22T14:41:14;2.88;;;0.10;;
75520;SDS011;64102;48.628;9.002;2022-10-22T14:43:40;1.48;;;0.10;;
75520;SDS011;64102;48.628;9.002;2022-10-22T14:46:06;2.10;;;0.20;;
75520;SDS011;64102;48.628;9.002;2022-10-22T14:48:32;1.02;;;0.17;;
75520;SDS011;64102;48.628;9.002;2022-10-22T14:50:58;1.07;;;0.00;;
75520;SDS011;64102;48.628;9.002;2022-10-22T14:53:23;2.67;;;0.10;;
75520;SDS011;64102;48.628;9.002;2022-10-22T14:55:48;1.75;;;0.10;;
75520;SDS011;64102;48.628;9.002;2022-10-22T14:58:15;2.78;;;0.10;;
75520;SDS011;64102;48.628;9.002;2022-10-22T15:00:41;1.17;;;0.10;;
75520;SDS011;64102;48.628;9.002;2022-10-22T15:03:07;0.73;;;0.00;;
75520;SDS011;64102;48.628;9.002;2022-10-22T15:05:32;2.78;;;0.20;;
75520;SDS011;64102;48.628;9.002;2022-10-22T15:07:58;1.38;;;0.03;;
75520;SDS011;64102;48.628;9.002;2022-10-22T15:10:24;1.40;;;0.10;;
75520;SDS011;64102;48.628;9.002;2022-10-22T15:12:50;0.88;;;0.10;;
75520;SDS011;64102;48.628;9.002;2022-10-22T15:15:15;2.47;;;0.10;;
75520;SDS011;64102;48.628;9.002;2022-10-22T15:17:41;1.20;;;0.10;;
75520;SDS011;64102;48.628;9.002;2022-10-22T15:20:06;3.50;;;0.23;;
75520;SDS011;64102;48.628;9.002;2022-10-22T15:22:32;0.68;;;0.08;;
75520;SDS011;64102;48.628;9.002;2022-10-22T15:25:02;0.50;;;0.00;;
75520;SDS011;64102;48.628;9.002;2022-10-22T15:27:30;0.98;;;0.10;;
75520;SDS011;64102;48.628;9.002;2022-10-22T15:29:55;0.50;;;0.03;;
75520;SDS011;64102;48.628;9.002;2022-10-22T15:32:23;0.82;;;0.10;;
75520;SDS011;64102;48.628;9.002;2022-10-22T15:34:52;2.15;;;0.10;;
75520;SDS011;64102;48.628;9.002;2022-10-22T15:37:21;1.38;;;0.10;;
75520;SDS011;64102;48.628;9.002;2022-10-22T15:39:46;1.55;;;0.05;;
75520;SDS011;64102;48.628;9.002;2022-10-22T15:42:12;0.85;;;0.00;;
75520;SDS011;64102;48.628;9.002;2022-10-22T15:44:38;1.10;;;0.00;;
75520;SDS011;64102;48.628;9.002;2022-10-22T15:47:04;3.42;;;0.10;;
75520;SDS011;64102;48.628;9.002;2022-10-22T15:49:32;1.10;;;0.00;;
75520;SDS011;64102;48.628;9.002;2022-10-22T15:51:59;0.75;;;0.00;;
75520;SDS011;64102;48.628;9.002;2022-10-22T15:54:26;0.77;;;0.00;;
75520;SDS011;64102;48.628;9.002;2022-10-22T15:56:52;1.45;;;0.00;;
75520;SDS011;64102;48.628;9.002;2022-10-22T15:59:18;2.42;;;0.20;;
75520;SDS011;64102;48.628;9.002;2022-10-22T16:01:44;1.27;;;0.07;;
75520;SDS011;64102;48.628;9.002;2022-10-22T16:04:09;0.30;;;0.00;;
75520;SDS011;64102;48.628;9.002;2022-10-22T16:06:36;2.33;;;0.03;;
75520;SDS011;64102;48.628;9.002;2022-10-22T16:09:06;1.15;;;0.00;;
75520;SDS011;64102;48.628;9.002;2022-10-22T16:11:33;1.45;;;0.00;;
75520;SDS011;64102;48.628;9.002;2022-10-22T16:14:00;0.80;;;0.00;;
75520;SDS011;64102;48.628;9.002;2022-10-22T16:16:28;4.45;;;0.10;;
75520;SDS011;64102;48.628;9.002;2022-10-22T16:18:55;1.88;;;0.00;;
75520;SDS011;64102;48.628;9.002;2022-10-22T16:21:21;1.42;;;0.10;;
75520;SDS011;64102;48.628;9.002;2022-10-22T16:23:47;1.03;;;0.00;;
75520;SDS011;64102;48.628;9.002;2022-10-22T16:26:14;1.38;;;0.00;;
75520;SDS011;64102;48.628;9.002;2022-10-22T16:28:41;0.93;;;0.00;;
75520;SDS011;64102;48.628;9.002;2022-10-22T16:31:07;1.38;;;0.00;;
75520;SDS011;64102;48.628;9.002;2022-10-22T16:33:35;1.00;;;0.00;;
75520;SDS011;64102;48.628;9.002;2022-10-22T16:36:03;2.53;;;0.10;;